Time;durP1;ratioP1;P1;durP2;ratioP2;P2;SDS_P1;SDS_P2;PMS_P1;PMS_P2;Temp;Humidity;BMP_temperature;BMP_pressure;BME280_temperature;BME280_humidity;BME280_pressure;Samples;Min_cycle;Max_cycle;Signal;HPM_P1;HPM_P2
2023/06/28 00:01:41;;;;;;;0.93;0.93;;;;;;;16.35;73.72;101810.28;5092745;28;20097;-83
2023/06/28 00:04:06;;;;;;;1.35;1.20;;;;;;;16.38;74.76;101816.34;5092609;28;20028;-83
2023/06/28 00:06:31;;;;;;;1.03;0.97;;;;;;;16.32;75.74;101804.28;5091971;28;20020;-83
2023/06/28 00:09:00;;;;;;;1.57;1.07;;;;;;;16.31;74.36;101800.78;5092994;28;20460;-83
2023/06/28 00:11:27;;;;;;;1.70;1.05;;;;;;;16.33;74.75;101813.81;5092697;28;20051;-83
2023/06/28 00:13:53;;;;;;;1.00;0.90;;;;;;;16.30;75.46;101814.75;5092191;28;20111;-83
2023/06/28 00:16:19;;;;;;;0.80;0.80;;;;;;;16.29;75.81;101812.19;5092795;28;20059;-83
2023/06/28 00:18:45;;;;;;;0.70;0.70;;;;;;;16.26;76.92;101812.25;5093158;28;20028;-83
2023/06/28 00:21:13;;;;;;;0.65;0.65;;;;;;;16.26;76.07;101809.63;5091155;28;20446;-83
2023/06/28 00:23:39;;;;;;;0.93;0.60;;;;;;;16.23;75.12;101807.09;5091400;28;20494;-83
2023/06/28 00:26:04;;;;;;;1.07;0.93;;;;;;;16.21;75.63;101810.59;5093080;28;20099;-83
2023/06/28 00:28:30;;;;;;;1.40;1.30;;;;;;;16.16;75.18;101791.53;5091741;28;20290;-84
2023/06/28 00:30:55;;;;;;;0.80;0.80;;;;;;;16.21;75.75;101807.97;5092116;28;20028;-83
2023/06/28 00:33:20;;;;;;;0.80;0.80;;;;;;;16.20;76.17;101811.53;5092249;28;20484;-83
2023/06/28 00:35:47;;;;;;;0.87;0.87;;;;;;;16.19;76.60;101816.78;5091912;28;20026;-83
2023/06/28 00:38:12;;;;;;;0.60;0.60;;;;;;;16.17;76.60;101822.06;5092358;28;20119;-83
2023/06/28 00:40:37;;;;;;;0.63;0.63;;;;;;;16.13;75.83;101812.53;5091714;28;20103;-83
2023/06/28 00:43:03;;;;;;;0.90;0.90;;;;;;;16.15;76.93;101817.75;5092357;28;20035;-83
2023/06/28 00:45:28;;;;;;;0.80;0.80;;;;;;;16.15;76.93;101820.38;5091911;28;20036;-82
2023/06/28 00:47:54;;;;;;;0.77;0.70;;;;;;;16.14;77.42;101816.88;5091792;28;20024;-83
2023/06/28 00:50:20;;;;;;;0.55;0.55;;;;;;;16.15;77.44;101817.75;5093561;28;20054;-83
2023/06/28 00:52:46;;;;;;;0.60;0.60;;;;;;;16.09;76.56;101804.78;5096506;28;20028;-83
2023/06/28 00:55:12;;;;;;;1.07;1.07;;;;;;;16.10;77.04;101811.75;5095523;28;20024;-83
2023/06/28 00:57:38;;;;;;;0.90;0.90;;;;;;;16.14;77.21;101818.66;5096244;28;20533;-83
2023/06/28 01:00:08;;;;;;;1.10;1.05;;;;;;;16.15;77.17;101820.38;5095904;28;20443;-83
2023/06/28 01:02:33;;;;;;;0.80;0.80;;;;;;;16.14;77.19;101816.03;5095675;28;20020;-83
2023/06/28 01:04:59;;;;;;;1.20;0.90;;;;;;;16.15;77.57;101816.00;5096119;28;20077;-83
2023/06/28 01:07:28;;;;;;;0.67;0.60;;;;;;;16.13;77.53;101809.91;5095731;28;20032;-83
2023/06/28 01:09:56;;;;;;;1.00;1.00;;;;;;;16.16;77.63;101815.09;5095299;28;20024;-83
2023/06/28 01:12:23;;;;;;;0.93;0.93;;;;;;;16.15;77.02;101821.22;5096200;28;20039;-82
2023/06/28 01:14:49;;;;;;;1.10;1.00;;;;;;;16.13;77.03;101812.53;5096308;28;20028;-83
2023/06/28 01:17:14;;;;;;;1.40;1.30;;;;;;;16.18;76.92;101815.94;5094758;28;20065;-83
2023/06/28 01:19:39;;;;;;;1.30;1.20;;;;;;;16.17;77.00;101810.72;5096362;28;20032;-83
2023/06/28 01:22:09;;;;;;;1.27;1.17;;;;;;;16.20;77.08;101815.88;5096044;28;20507;-83
2023/06/28 01:24:36;;;;;;;1.50;1.40;;;;;;;16.19;77.87;101808.91;5095008;28;20032;-83
2023/06/28 01:27:02;;;;;;;0.85;0.80;;;;;;;16.19;77.80;101808.91;5095575;28;20028;-83
2023/06/28 01:29:28;;;;;;;0.90;0.90;;;;;;;16.20;77.76;101814.13;5095407;28;20036;-83
2023/06/28 01:31:55;;;;;;;1.02;1.02;;;;;;;16.20;77.93;101813.25;5094960;28;20031;-83
2023/06/28 01:34:22;;;;;;;1.02;1.00;;;;;;;16.17;77.97;101802.84;5095736;28;20438;-83
2023/06/28 01:36:49;;;;;;;0.70;0.70;;;;;;;16.18;78.38;101805.44;5094654;28;20043;-83
2023/06/28 01:39:17;;;;;;;1.05;1.05;;;;;;;16.19;78.47;101807.19;5095370;28;20028;-83
2023/06/28 01:41:44;;;;;;;1.00;0.93;;;;;;;16.18;78.17;101805.44;5095870;28;20024;-83
2023/06/28 01:44:10;;;;;;;1.35;0.90;;;;;;;16.18;79.03;101801.94;5094756;28;20032;-82
2023/06/28 01:46:36;;;;;;;1.17;1.07;;;;;;;16.20;79.02;101808.03;5095437;28;20020;-83
2023/06/28 01:49:01;;;;;;;2.13;1.10;;;;;;;16.20;78.56;101808.03;5095412;28;20066;-83
2023/06/28 01:51:27;;;;;;;1.13;1.07;;;;;;;16.17;78.75;101806.34;5094229;28;20703;-83
2023/06/28 01:53:52;;;;;;;1.10;1.03;;;;;;;16.16;79.07;101809.84;5095062;28;20060;-83
2023/06/28 01:56:18;;;;;;;0.87;0.87;;;;;;;16.15;78.97;101804.66;5095461;28;20056;-83
2023/06/28 01:58:49;;;;;;;0.90;0.90;;;;;;;16.14;78.54;101805.56;5094383;28;20029;-82
2023/06/28 02:01:15;;;;;;;1.00;1.00;;;;;;;16.13;78.70;101801.22;5078762;28;20024;-83
2023/06/28 02:03:40;;;;;;;1.00;1.00;;;;;;;16.12;78.78;101802.13;5095073;28;20081;-83
2023/06/28 02:06:05;;;;;;;1.17;1.07;;;;;;;16.11;78.91;101797.78;5094413;28;20085;-83
2023/06/28 02:08:30;;;;;;;1.03;1.03;;;;;;;16.02;78.86;101783.13;5094269;28;20020;-83
2023/06/28 02:10:56;;;;;;;0.97;0.97;;;;;;;16.10;78.62;101799.50;5095078;28;20021;-83
2023/06/28 02:13:21;;;;;;;0.90;0.90;;;;;;;16.09;78.51;101797.81;5093587;28;20028;-83
2023/06/28 02:15:46;;;;;;;1.30;1.20;;;;;;;16.07;78.91;101796.97;5094767;28;20024;-83
2023/06/28 02:18:16;;;;;;;0.90;0.90;;;;;;;16.05;78.75;101793.53;5094651;28;20028;-83
2023/06/28 02:20:43;;;;;;;0.70;0.70;;;;;;;16.08;78.23;101787.34;5093984;28;20028;-83
2023/06/28 02:23:09;;;;;;;0.90;0.90;;;;;;;16.05;79.54;101783.06;5094439;28;20020;-83
2023/06/28 02:25:34;;;;;;;0.80;0.80;;;;;;;15.97;78.83;101777.16;5094579;28;20433;-83
2023/06/28 02:27:59;;;;;;;0.90;0.90;;;;;;;15.97;79.68;101783.22;5093933;28;20024;-83
2023/06/28 02:30:24;;;;;;;0.80;0.80;;;;;;;15.93;79.37;101783.34;5093734;28;20024;-83
2023/06/28 02:32:50;;;;;;;1.40;1.30;;;;;;;15.93;78.61;101773.72;5094615;28;20107;-83
2023/06/28 02:35:15;;;;;;;1.30;1.17;;;;;;;15.95;78.81;101779.78;5093585;28;20048;-83
2023/06/28 02:37:43;;;;;;;1.00;1.00;;;;;;;15.93;78.89;101781.56;5094152;28;20499;-83
2023/06/28 02:40:10;;;;;;;1.27;1.10;;;;;;;15.91;78.69;101772.91;5093362;28;20033;-83
2023/06/28 02:42:35;;;;;;;1.25;1.15;;;;;;;15.94;79.12;101785.06;5094477;28;20032;-83
2023/06/28 02:45:00;;;;;;;1.07;1.00;;;;;;;15.88;78.65;101772.97;5094210;28;20024;-84
2023/06/28 02:47:26;;;;;;;1.03;0.90;;;;;;;15.81;79.24;101761.75;5093277;28;20028;-84
2023/06/28 02:49:51;;;;;;;1.03;1.00;;;;;;;15.88;79.04;101776.44;5094210;28;20056;-84
2023/06/28 02:52:16;;;;;;;2.27;1.20;;;;;;;15.90;79.17;101781.66;5093916;28;20020;-84
2023/06/28 02:54:42;;;;;;;1.00;1.00;;;;;;;15.85;79.13;101780.88;5093741;28;20031;-85
2023/06/28 02:57:09;;;;;;;1.00;1.00;;;;;;;15.83;79.62;101783.53;5092776;28;20084;-84
2023/06/28 02:59:34;;;;;;;0.77;0.77;;;;;;;15.82;80.18;101780.94;5093853;28;20039;-84
2023/06/28 03:02:01;;;;;;;0.97;0.97;;;;;;;15.81;79.49;101781.84;5093486;28;20028;-84
2023/06/28 03:04:27;;;;;;;1.20;1.10;;;;;;;15.81;79.43;101782.69;5093668;28;20373;-84
2023/06/28 03:06:53;;;;;;;1.17;1.00;;;;;;;15.80;79.83;101780.13;5093876;28;20081;-84
2023/06/28 03:09:18;;;;;;;1.43;1.20;;;;;;;15.78;79.90;101777.50;5092677;28;20464;-84
2023/06/28 03:11:43;;;;;;;0.80;0.80;;;;;;;15.78;81.72;101774.03;5094154;28;20096;-84
2023/06/28 03:14:09;;;;;;;0.53;0.53;;;;;;;15.77;80.57;101781.03;5092735;28;20460;-84
2023/06/28 03:16:34;;;;;;;0.60;0.60;;;;;;;15.75;81.76;101786.31;5093003;28;20243;-83
2023/06/28 03:18:59;;;;;;;1.70;0.90;;;;;;;15.72;80.41;101770.66;5093468;28;20138;-83
2023/06/28 03:21:25;;;;;;;0.90;0.90;;;;;;;15.72;82.85;101775.91;5092945;28;20031;-84
2023/06/28 03:23:51;;;;;;;1.00;1.00;;;;;;;15.63;81.76;101770.03;5093149;28;20024;-84
2023/06/28 03:26:16;;;;;;;1.60;1.30;;;;;;;15.64;83.30;101769.13;5093647;28;20028;-84
2023/06/28 03:28:41;;;;;;;1.00;0.80;;;;;;;15.62;82.27;101771.75;5093558;28;20380;-84
2023/06/28 03:31:07;;;;;;;0.87;0.87;;;;;;;15.60;83.01;101778.78;5092162;28;20027;-84
2023/06/28 03:33:32;;;;;;;0.67;0.67;;;;;;;15.58;84.93;101770.97;5093286;28;20487;-84
2023/06/28 03:35:57;;;;;;;0.90;0.90;;;;;;;15.44;82.76;101749.47;5093397;28;20028;-84
2023/06/28 03:38:23;;;;;;;1.30;1.10;;;;;;;15.52;82.88;101772.84;5092377;28;20051;-85
2023/06/28 03:40:48;;;;;;;1.60;1.20;;;;;;;15.53;82.15;101769.34;5093413;28;20024;-84
2023/06/28 03:43:13;;;;;;;0.80;0.80;;;;;;;15.53;82.08;101767.59;5093114;28;20020;-85
2023/06/28 03:45:39;;;;;;;0.90;0.90;;;;;;;15.55;85.87;101762.31;5092749;28;20031;-84
2023/06/28 03:48:04;;;;;;;0.67;0.67;;;;;;;15.51;83.57;101761.53;5093277;28;20024;-85
2023/06/28 03:50:29;;;;;;;0.80;0.80;;;;;;;15.46;83.48;101757.28;5091939;28;20032;-85
2023/06/28 03:52:55;;;;;;;1.23;1.00;;;;;;;15.44;84.14;101770.38;5093550;28;20423;-85
2023/06/28 03:55:20;;;;;;;1.10;1.10;;;;;;;15.44;82.89;101773.00;5092854;28;20376;-85
2023/06/28 03:57:45;;;;;;;1.40;0.97;;;;;;;15.44;83.20;101773.88;5091843;28;20038;-85
2023/06/28 04:00:12;;;;;;;1.23;1.10;;;;;;;15.47;82.95;101765.09;5092071;28;20024;-84
2023/06/28 04:02:38;;;;;;;1.00;1.00;;;;;;;15.38;83.02;101750.44;5092441;28;20020;-84
2023/06/28 04:05:04;;;;;;;1.52;1.15;;;;;;;15.43;82.32;101760.81;5092232;28;20541;-84
2023/06/28 04:07:30;;;;;;;1.25;1.08;;;;;;;15.51;82.57;101769.38;5092174;28;20024;-84
2023/06/28 04:09:55;;;;;;;0.83;0.83;;;;;;;15.52;83.26;101765.00;5092988;28;20020;-84
2023/06/28 04:12:23;;;;;;;0.70;0.70;;;;;;;15.47;82.26;101759.03;5092078;28;20437;-84
2023/06/28 04:14:49;;;;;;;1.60;1.10;;;;;;;15.51;82.46;101766.78;5092932;28;20491;-84
2023/06/28 04:17:14;;;;;;;1.00;1.00;;;;;;;15.51;82.79;101756.31;5092799;28;20028;-84
2023/06/28 04:19:40;;;;;;;1.10;1.10;;;;;;;15.49;85.79;101755.47;5092002;28;20024;-83
2023/06/28 04:22:05;;;;;;;1.00;1.00;;;;;;;15.42;84.53;101752.13;5092928;28;20044;-83
2023/06/28 04:24:30;;;;;;;0.73;0.73;;;;;;;15.39;83.57;101756.56;5094302;28;20419;-84
2023/06/28 04:27:00;;;;;;;1.10;1.00;;;;;;;15.39;83.74;101760.03;5096323;28;20031;-84
2023/06/28 04:29:28;;;;;;;1.30;1.20;;;;;;;15.39;82.90;101757.41;5096131;28;20468;-84
2023/06/28 04:31:54;;;;;;;1.27;1.17;;;;;;;15.36;83.17;101754.88;5094236;28;20032;-84
2023/06/28 04:34:19;;;;;;;1.20;1.10;;;;;;;15.40;83.38;101760.91;5094304;28;20028;-84
2023/06/28 04:36:45;;;;;;;1.13;1.10;;;;;;;15.41;84.07;101753.00;5095831;28;20043;-83
2023/06/28 04:39:12;;;;;;;1.20;1.10;;;;;;;15.46;83.25;101767.75;5096590;28;20028;-84
2023/06/28 04:41:37;;;;;;;1.13;0.95;;;;;;;15.49;83.85;101763.31;5096092;28;20476;-84
2023/06/28 04:44:03;;;;;;;1.00;1.00;;;;;;;15.53;83.75;101759.75;5096957;28;20063;-84
2023/06/28 04:46:28;;;;;;;1.07;1.07;;;;;;;15.53;85.52;101759.75;5096313;28;20426;-84
2023/06/28 04:48:55;;;;;;;1.20;1.10;;;;;;;15.55;83.83;101763.19;5095868;28;20111;-84
2023/06/28 04:51:20;;;;;;;1.08;0.98;;;;;;;15.56;83.50;101764.06;5095930;28;20032;-84
2023/06/28 04:53:47;;;;;;;1.03;0.93;;;;;;;15.59;83.99;101761.38;5095492;28;20546;-84
2023/06/28 04:56:14;;;;;;;0.95;0.95;;;;;;;15.60;83.82;101761.34;5096081;28;20080;-84
2023/06/28 04:58:40;;;;;;;1.67;1.17;;;;;;;15.53;83.92;101751.91;5096198;28;20039;-83
2023/06/28 05:01:07;;;;;;;1.20;1.20;;;;;;;15.63;84.12;101772.63;5094960;28;20032;-84
2023/06/28 05:03:32;;;;;;;1.15;1.00;;;;;;;15.65;84.16;101768.22;5096162;28;20059;-84
2023/06/28 05:06:01;;;;;;;1.03;1.03;;;;;;;15.63;84.24;101763.00;5096017;28;20468;-85
2023/06/28 05:08:27;;;;;;;0.90;0.90;;;;;;;15.63;84.28;101763.00;5095312;28;20039;-84
2023/06/28 05:10:52;;;;;;;1.05;1.05;;;;;;;15.66;84.08;101762.97;5096280;28;20039;-84
2023/06/28 05:13:18;;;;;;;1.17;1.07;;;;;;;15.62;85.34;101747.38;5095837;28;20024;-84
2023/06/28 05:15:43;;;;;;;1.27;1.17;;;;;;;15.66;83.62;101760.34;5095737;28;20027;-84
2023/06/28 05:18:09;;;;;;;0.90;0.90;;;;;;;15.58;85.10;101739.56;5095688;28;20071;-85
2023/06/28 05:20:34;;;;;;;1.20;1.10;;;;;;;15.68;84.03;101755.06;5096050;28;20621;-84
2023/06/28 05:23:13;;;;;;;1.20;1.20;;;;;;;15.68;84.00;101762.91;5094821;28;20028;-84
2023/06/28 05:25:39;;;;;;;1.20;1.10;;;;;;;15.69;84.59;101765.50;5095919;28;20119;-84
2023/06/28 05:28:06;;;;;;;1.85;1.10;;;;;;;15.72;84.27;101765.44;5096045;28;20107;-84
2023/06/28 05:30:32;;;;;;;0.88;0.88;;;;;;;15.75;84.34;101757.50;5094082;28;20020;-86
2023/06/28 05:32:58;;;;;;;0.90;0.90;;;;;;;15.78;84.65;101751.34;5093017;28;20028;-85
2023/06/28 05:35:24;;;;;;;1.13;0.93;;;;;;;15.81;84.97;101760.91;5093396;28;20036;-85
2023/06/28 05:37:50;;;;;;;1.67;1.20;;;;;;;15.82;86.25;101763.47;5093677;28;20522;-86
2023/06/28 05:40:15;;;;;;;0.97;0.93;;;;;;;15.83;85.08;101759.97;5094961;28;20028;-85
2023/06/28 05:42:40;;;;;;;1.00;1.00;;;;;;;15.82;87.02;101760.00;5095077;28;20062;-84
2023/06/28 05:45:06;;;;;;;1.40;1.30;;;;;;;15.84;84.76;101755.56;5095144;28;20024;-92
2023/06/28 05:47:31;;;;;;;1.50;1.40;;;;;;;15.83;88.00;101746.88;5098829;28;20020;-96
2023/06/28 05:49:56;;;;;;;1.67;1.17;;;;;;;15.82;86.35;101753.00;5097269;28;20032;-96
2023/06/28 05:52:22;;;;;;;1.27;1.27;;;;;;;15.82;85.02;101750.38;5098041;28;20024;-96
2023/06/28 05:54:47;;;;;;;1.17;1.10;;;;;;;15.81;84.92;101746.03;5097575;28;20035;-95
2023/06/28 05:57:12;;;;;;;1.67;1.07;;;;;;;15.85;85.51;101749.47;5096659;28;20470;-96
2023/06/28 05:59:38;;;;;;;1.70;1.40;;;;;;;15.88;85.33;101754.66;5096634;28;20031;-96
2023/06/28 06:02:03;;;;;;;1.63;1.40;;;;;;;15.90;85.15;101750.25;5097148;28;20100;-95
2023/06/28 06:04:29;;;;;;;1.60;1.50;;;;;;;15.94;85.33;101753.66;5115350;28;20019;-95
2023/06/28 06:06:54;;;;;;;1.10;1.10;;;;;;;15.96;85.67;101747.47;5109256;28;20426;-96
2023/06/28 06:09:20;;;;;;;1.80;1.43;;;;;;;15.98;86.43;101750.91;5096216;28;20024;-96
2023/06/28 06:11:45;;;;;;;1.20;1.10;;;;;;;15.98;86.57;101747.47;5096592;28;20371;-95
2023/06/28 06:14:11;;;;;;;2.07;1.20;;;;;;;16.00;85.40;101745.63;5096582;28;20095;-96
2023/06/28 06:16:36;;;;;;;1.40;1.30;;;;;;;16.01;84.78;101743.00;5095967;28;20475;-95
2023/06/28 06:19:01;;;;;;;1.60;1.50;;;;;;;16.04;85.01;101744.69;5096294;28;20142;-95
2023/06/28 06:21:27;;;;;;;2.10;1.23;;;;;;;16.09;84.81;101753.31;5096232;28;20046;-95
2023/06/28 06:23:52;;;;;;;1.30;1.20;;;;;;;16.10;84.60;101752.38;5096636;28;20013;-96
2023/06/28 06:26:18;;;;;;;1.70;1.50;;;;;;;16.11;84.05;101741.00;5096935;28;20020;-94
2023/06/28 06:28:43;;;;;;;2.10;1.80;;;;;;;16.15;83.18;101741.81;5096261;28;20020;-95
2023/06/28 06:31:13;;;;;;;1.90;1.80;;;;;;;16.16;85.24;101740.91;5096701;28;20039;-92
2023/06/28 06:33:39;;;;;;;2.10;1.80;;;;;;;16.18;83.95;101745.22;5101156;28;20016;-94
2023/06/28 06:36:04;;;;;;;2.70;2.00;;;;;;;16.21;83.75;101746.88;5097184;28;20076;-92
2023/06/28 06:38:30;;;;;;;2.53;1.83;;;;;;;16.18;84.86;101736.47;5095187;28;20085;-88
2023/06/28 06:40:55;;;;;;;2.60;1.90;;;;;;;16.25;86.83;101739.81;5094320;28;20365;-89
2023/06/28 06:43:20;;;;;;;2.40;1.97;;;;;;;16.26;85.66;101746.78;5094388;28;20036;-88
2023/06/28 06:45:46;;;;;;;4.23;2.80;;;;;;;16.21;88.12;101742.50;5094629;28;20110;-86
2023/06/28 06:48:11;;;;;;;5.50;2.93;;;;;;;16.14;87.08;101738.31;5084748;28;20032;-88
2023/06/28 06:50:36;;;;;;;2.57;2.37;;;;;;;16.19;86.78;101752.19;5093670;28;20035;-88
2023/06/28 06:53:02;;;;;;;2.77;2.30;;;;;;;16.10;88.61;101741.06;5094603;28;20046;-88
2023/06/28 06:55:27;;;;;;;2.83;1.90;;;;;;;16.10;86.76;101741.91;5093344;28;20028;-87
2023/06/28 06:58:11;;;;;;;3.50;2.47;;;;;;;16.19;89.36;101759.16;5094392;28;20024;-88
2023/06/28 07:00:37;;;;;;;2.85;2.20;;;;;;;16.19;88.91;101754.78;5094568;28;20354;-85
2023/06/28 07:03:11;;;;;;;2.00;1.90;;;;;;;16.11;86.98;101735.78;5094216;28;20140;-85
2023/06/28 07:05:45;;;;;;;3.28;2.20;;;;;;;16.21;87.67;101752.97;5094485;28;20093;-85
2023/06/28 07:08:19;;;;;;;2.58;2.10;;;;;;;16.18;86.45;101755.69;5091473;28;20388;-84
2023/06/28 07:10:44;;;;;;;2.10;1.90;;;;;;;16.15;89.21;101747.91;5093938;28;20028;-85
2023/06/28 07:13:10;;;;;;;2.07;1.70;;;;;;;16.26;87.43;101763.38;5093369;28;20066;-85
2023/06/28 07:15:35;;;;;;;2.43;2.00;;;;;;;16.22;88.72;101738.13;5091769;28;20034;-84
2023/06/28 07:18:01;;;;;;;2.07;1.80;;;;;;;16.36;89.62;101766.59;5093317;28;20028;-83
2023/06/28 07:20:26;;;;;;;1.67;1.57;;;;;;;16.36;87.60;101764.84;5093094;28;20073;-83
2023/06/28 07:22:52;;;;;;;1.73;1.63;;;;;;;16.42;87.14;101766.47;5092719;28;20069;-83
2023/06/28 07:25:17;;;;;;;1.70;1.60;;;;;;;16.44;86.48;101767.25;5092555;28;20031;-82
2023/06/28 07:27:43;;;;;;;1.48;1.38;;;;;;;16.49;86.98;101767.19;5093036;28;20115;-82
2023/06/28 07:30:08;;;;;;;1.50;1.40;;;;;;;16.53;85.75;101771.41;5092300;28;20035;-83
2023/06/28 07:32:34;;;;;;;2.17;1.87;;;;;;;16.56;88.03;101773.09;5093229;28;20089;-83
2023/06/28 07:35:00;;;;;;;1.80;1.70;;;;;;;16.59;86.76;101765.16;5093654;28;20020;-82
2023/06/28 07:37:25;;;;;;;2.35;1.90;;;;;;;16.62;87.26;101772.94;5091588;28;20056;-82
2023/06/28 07:39:51;;;;;;;1.60;1.50;;;;;;;16.66;88.73;101771.97;5092981;28;20099;-82
2023/06/28 07:42:16;;;;;;;1.90;1.70;;;;;;;16.71;86.75;101764.00;5093044;28;20420;-82
2023/06/28 07:44:43;;;;;;;1.40;1.30;;;;;;;16.77;88.63;101767.31;5091933;28;20425;-82
2023/06/28 07:47:08;;;;;;;;;;;;;;;16.85;89.02;101774.09;5093056;28;20105;-82
2023/06/28 07:49:38;;;;;;;1.60;1.50;;;;;;;16.86;87.48;101758.31;5091801;28;20360;-80
2023/06/28 07:52:04;;;;;;;3.13;2.00;;;;;;;16.93;88.36;101765.13;5093202;28;20024;-81
2023/06/28 07:54:30;;;;;;;2.10;1.90;;;;;;;16.98;87.23;101767.66;5092953;28;20067;-81
2023/06/28 07:56:55;;;;;;;2.47;1.90;;;;;;;17.04;89.47;101766.63;5092479;28;20024;-80
2023/06/28 07:59:20;;;;;;;2.00;1.90;;;;;;;17.06;86.60;101770.94;5092863;28;20012;-81
2023/06/28 08:01:47;;;;;;;4.30;2.00;;;;;;;17.10;86.99;101769.06;5093417;28;20097;-81
2023/06/28 08:04:15;;;;;;;2.65;1.85;;;;;;;17.10;85.57;101761.22;5092338;28;20102;-83
2023/06/28 08:06:41;;;;;;;2.08;1.65;;;;;;;17.14;87.19;101771.56;5092472;28;20069;-81
2023/06/28 08:09:06;;;;;;;1.75;1.65;;;;;;;17.11;85.54;101763.78;5092100;28;20468;-81
2023/06/28 08:11:33;;;;;;;3.30;2.03;;;;;;;17.12;85.70;101773.38;5092242;28;20127;-80
2023/06/28 08:13:58;;;;;;;2.60;2.10;;;;;;;17.12;84.01;101762.03;5092730;28;20123;-80
2023/06/28 08:16:23;;;;;;;4.13;2.23;;;;;;;17.12;85.38;101765.50;5092361;28;20028;-83
2023/06/28 08:18:49;;;;;;;5.23;2.83;;;;;;;17.06;84.70;101752.56;5091496;28;20043;-82
2023/06/28 08:21:14;;;;;;;3.07;2.40;;;;;;;17.11;85.18;101755.91;5091536;28;20063;-83
2023/06/28 08:23:39;;;;;;;2.53;2.20;;;;;;;17.20;84.63;101764.44;5092627;28;20028;-82
2023/06/28 08:26:05;;;;;;;2.63;2.30;;;;;;;17.26;86.21;101759.88;5092202;28;20031;-82
2023/06/28 08:28:31;;;;;;;3.57;2.30;;;;;;;17.24;84.17;101756.44;5093005;28;20103;-82
2023/06/28 08:30:56;;;;;;;3.72;2.40;;;;;;;17.19;84.30;101754.84;5092303;28;20024;-87
2023/06/28 08:33:23;;;;;;;2.83;2.13;;;;;;;17.21;83.94;101755.66;5091636;28;20056;-85
2023/06/28 08:35:48;;;;;;;2.08;1.90;;;;;;;17.34;85.18;101767.50;5093027;28;20495;-85
2023/06/28 08:38:13;;;;;;;4.63;2.50;;;;;;;17.39;83.92;101767.41;5093608;28;20044;-84
2023/06/28 08:40:39;;;;;;;3.07;2.13;;;;;;;17.42;83.41;101770.78;5091897;28;20028;-84
2023/06/28 08:43:05;;;;;;;4.27;2.33;;;;;;;17.48;82.39;101774.13;5093680;28;20361;-84
2023/06/28 08:45:33;;;;;;;2.10;1.90;;;;;;;17.52;82.82;101773.13;5092730;28;20031;-84
2023/06/28 08:47:59;;;;;;;2.75;1.92;;;;;;;17.58;82.36;101770.31;5091881;28;20024;-84
2023/06/28 08:50:24;;;;;;;2.40;2.10;;;;;;;17.64;84.11;101764.91;5092321;28;20028;-84
2023/06/28 08:52:50;;;;;;;2.00;1.80;;;;;;;17.74;82.88;101768.97;5092143;28;20376;-85
2023/06/28 08:55:16;;;;;;;2.60;1.90;;;;;;;17.80;82.27;101764.41;5092303;28;20114;-85
2023/06/28 08:57:43;;;;;;;2.58;2.13;;;;;;;17.86;81.13;101766.84;5092717;28;20395;-85
2023/06/28 09:00:12;;;;;;;2.53;2.00;;;;;;;17.87;81.63;101763.34;5091661;28;20448;-84
2023/06/28 09:02:40;;;;;;;2.15;1.70;;;;;;;17.95;81.68;101757.84;5092539;28;20024;-85
2023/06/28 09:05:07;;;;;;;3.38;2.20;;;;;;;18.03;80.70;101758.47;5092175;28;20024;-84
2023/06/28 09:07:33;;;;;;;2.03;1.83;;;;;;;18.11;81.25;101758.25;5091550;28;20036;-84
2023/06/28 09:09:59;;;;;;;2.15;1.70;;;;;;;18.17;81.91;101758.91;5092630;28;20031;-84
2023/06/28 09:12:26;;;;;;;2.20;2.00;;;;;;;18.26;80.85;101756.88;5094467;28;20395;-83
2023/06/28 09:14:51;;;;;;;;;;;;;;;18.36;80.96;101753.88;5095925;28;20513;-84
2023/06/28 09:17:17;;;;;;;3.15;2.40;;;;;;;18.42;79.57;101747.53;5095740;28;19912;-83
2023/06/28 09:19:43;;;;;;;5.30;2.40;;;;;;;18.53;79.64;101757.72;5096157;28;20035;-84
2023/06/28 09:22:11;;;;;;;3.95;2.30;;;;;;;18.61;79.05;101754.81;5095409;28;20032;-83
2023/06/28 09:24:37;;;;;;;2.95;2.17;;;;;;;18.69;80.77;101744.88;5095835;28;20024;-83
2023/06/28 09:27:04;;;;;;;2.70;1.93;;;;;;;18.80;79.19;101760.31;5096040;28;20387;-83
2023/06/28 09:29:31;;;;;;;3.67;2.20;;;;;;;18.84;79.15;101754.00;5094819;28;20691;-83
2023/06/28 09:31:57;;;;;;;2.63;2.17;;;;;;;18.85;78.30;101760.13;5096220;28;20020;-83
2023/06/28 09:34:23;;;;;;;3.43;2.50;;;;;;;18.80;77.49;101755.88;5095148;28;20090;-83
2023/06/28 09:36:55;;;;;;;3.40;2.40;;;;;;;18.78;78.53;101754.22;5095247;28;20031;-83
2023/06/28 09:39:22;;;;;;;3.30;2.00;;;;;;;18.83;78.91;101762.81;5095050;28;20032;-83
2023/06/28 09:41:49;;;;;;;2.65;1.90;;;;;;;18.91;79.26;101762.53;5095445;28;20024;-83
2023/06/28 09:44:15;;;;;;;;;;;;;;;19.01;79.16;101755.22;5095092;28;20586;-83
2023/06/28 09:46:45;;;;;;;3.47;2.30;;;;;;;19.09;77.95;101756.63;5095615;28;19971;-84
2023/06/28 09:49:23;;;;;;;2.65;2.10;;;;;;;19.21;75.01;101752.69;5094604;28;20114;-83
2023/06/28 09:51:57;;;;;;;4.43;2.40;;;;;;;19.32;76.27;101749.66;5095358;28;20031;-84
2023/06/28 09:54:44;;;;;;;3.25;2.10;;;;;;;19.43;77.59;101754.53;5095358;28;20019;-81
2023/06/28 09:57:10;;;;;;;2.60;1.92;;;;;;;19.63;76.36;101751.13;5094760;28;20024;-83
2023/06/28 09:59:36;;;;;;;2.67;1.67;;;;;;;19.73;76.65;101738.44;5095583;28;20393;-81
2023/06/28 10:02:06;;;;;;;3.93;2.30;;;;;;;19.86;73.52;101744.97;5095831;28;20028;-82
2023/06/28 10:04:34;;;;;;;4.57;2.47;;;;;;;19.97;73.46;101743.69;5094660;28;20032;-82
2023/06/28 10:07:00;;;;;;;5.50;2.55;;;;;;;20.06;72.35;101731.00;5095084;28;20475;-82
2023/06/28 10:09:32;;;;;;;;;;;;;;;20.18;70.50;101739.31;5094658;28;20066;-84
2023/06/28 10:12:00;;;;;;;4.78;2.65;;;;;;;20.30;72.96;101738.81;5091723;28;20356;-84
2023/06/28 10:14:30;;;;;;;2.55;2.10;;;;;;;20.52;72.48;101745.78;5094644;28;20048;-84
2023/06/28 10:16:58;;;;;;;5.28;2.63;;;;;;;20.66;70.36;101742.56;5095071;28;20476;-84
2023/06/28 10:19:25;;;;;;;4.65;2.60;;;;;;;20.80;69.86;101739.34;5094167;28;20027;-84
2023/06/28 10:21:51;;;;;;;4.13;2.30;;;;;;;20.96;70.58;101734.22;5094986;28;20039;-84
2023/06/28 10:24:16;;;;;;;3.77;2.13;;;;;;;21.13;70.43;101731.69;5093883;28;20028;-84
2023/06/28 10:26:43;;;;;;;3.47;2.20;;;;;;;21.30;70.74;101735.31;5095228;28;20016;-83
2023/06/28 10:29:08;;;;;;;2.22;2.00;;;;;;;21.43;71.07;101731.19;5094417;28;20076;-82
2023/06/28 10:31:34;;;;;;;2.07;1.83;;;;;;;21.59;70.86;101727.84;5094073;28;20020;-82
2023/06/28 10:33:59;;;;;;;2.63;1.80;;;;;;;21.70;69.02;101729.97;5094765;28;20028;-84
2023/06/28 10:36:26;;;;;;;5.40;2.30;;;;;;;21.80;67.78;101733.88;5094626;28;20032;-86
2023/06/28 10:38:52;;;;;;;3.28;2.20;;;;;;;21.88;68.04;101730.84;5093917;28;20484;-86
2023/06/28 10:41:33;;;;;;;2.15;1.90;;;;;;;21.96;67.88;101730.50;5094414;28;20028;-85
2023/06/28 10:44:08;;;;;;;2.97;2.00;;;;;;;22.06;67.63;101724.69;5094563;28;20024;-85
2023/06/28 10:46:33;;;;;;;2.33;2.10;;;;;;;22.10;65.77;101721.88;5093633;28;20032;-85
2023/06/28 10:48:59;;;;;;;2.42;2.00;;;;;;;22.24;65.10;101737.03;5094455;28;20031;-86
2023/06/28 10:51:44;;;;;;;2.90;2.20;;;;;;;22.24;64.10;101719.38;5092050;28;20996;-85
2023/06/28 10:54:14;;;;;;;3.45;2.17;;;;;;;22.36;65.87;101725.81;5082065;28;20069;-85
2023/06/28 10:56:47;;;;;;;2.83;2.00;;;;;;;22.39;64.57;101730.97;5082196;28;20084;-85
2023/06/28 10:59:12;;;;;;;2.28;1.88;;;;;;;22.40;65.32;101711.53;5086174;28;20495;-89
2023/06/28 11:01:55;;;;;;;4.70;2.50;;;;;;;22.55;61.80;101730.22;5088838;28;20024;-83
2023/06/28 11:04:25;;;;;;;5.30;2.67;;;;;;;22.56;62.68;101716.91;5090808;28;20036;-86
2023/06/28 11:07:02;;;;;;;3.35;2.50;;;;;;;22.77;61.73;101727.28;5093727;28;20089;-86
2023/06/28 11:09:28;;;;;;;3.53;2.20;;;;;;;22.89;63.44;101720.50;5093868;28;20133;-87
2023/06/28 11:11:58;;;;;;;3.13;2.10;;;;;;;23.10;61.07;101708.75;5094382;28;20036;-85
2023/06/28 11:14:25;;;;;;;3.80;2.20;;;;;;;23.23;62.72;101716.88;5092903;28;20032;-83
2023/06/28 11:16:52;;;;;;;2.38;2.17;;;;;;;23.24;59.87;101713.31;5094007;28;20414;-83
2023/06/28 11:19:20;;;;;;;1.90;1.80;;;;;;;23.31;63.69;101713.81;5092748;28;20020;-83
2023/06/28 11:21:56;;;;;;;3.05;2.08;;;;;;;23.41;61.66;101704.41;5091989;28;20051;-83
2023/06/28 11:24:37;;;;;;;2.55;2.00;;;;;;;23.73;61.92;101703.53;5093567;28;20107;-83